createdAt,value
2019-03-16T00:00:50.836Z,1.87
2019-03-16T00:03:18.497Z,1.50
2019-03-16T00:05:46.153Z,2.47
2019-03-16T00:08:13.821Z,2.27
2019-03-16T00:10:41.525Z,1.90
2019-03-16T00:13:09.131Z,2.30
2019-03-16T00:15:37.885Z,2.47
2019-03-16T00:18:05.514Z,1.80
2019-03-16T00:20:33.173Z,2.00
2019-03-16T00:23:00.813Z,2.03
2019-03-16T00:25:28.761Z,3.23
2019-03-16T00:27:56.406Z,2.30
2019-03-16T00:30:24.102Z,2.97
2019-03-16T00:32:51.780Z,2.93
2019-03-16T00:35:19.439Z,2.20
2019-03-16T00:37:47.078Z,2.33
2019-03-16T00:40:14.897Z,2.20
2019-03-16T00:42:42.565Z,2.77
2019-03-16T00:45:10.341Z,2.03
2019-03-16T00:47:39.085Z,2.10
2019-03-16T00:50:07.289Z,2.60
2019-03-16T00:52:35.028Z,2.20
2019-03-16T00:55:02.859Z,1.83
2019-03-16T00:57:30.493Z,2.23
2019-03-16T00:59:58.165Z,2.33
2019-03-16T01:02:27.390Z,2.00
2019-03-16T01:04:55.365Z,2.30
2019-03-16T01:07:23.031Z,2.03
2019-03-16T01:09:50.694Z,2.00
2019-03-16T01:12:18.376Z,2.60
2019-03-16T01:14:46.060Z,2.30
2019-03-16T01:17:14.853Z,2.30
2019-03-16T01:19:42.506Z,2.50
2019-03-16T01:22:10.182Z,2.83
2019-03-16T01:24:37.798Z,2.30
2019-03-16T01:27:05.449Z,2.10
2019-03-16T01:29:33.128Z,2.37
2019-03-16T01:32:00.804Z,2.20
2019-03-16T01:34:28.498Z,3.10
2019-03-16T01:36:56.121Z,2.70
2019-03-16T01:39:23.842Z,2.73
2019-03-16T01:41:51.478Z,2.30
2019-03-16T01:44:19.183Z,2.40
2019-03-16T01:46:46.809Z,2.50
2019-03-16T01:49:15.483Z,2.50
2019-03-16T01:51:43.093Z,2.23
2019-03-16T01:54:10.890Z,2.83
2019-03-16T01:56:38.510Z,2.40
2019-03-16T01:59:06.149Z,3.20
2019-03-16T02:01:33.813Z,2.77
2019-03-16T02:04:01.490Z,2.70
2019-03-16T02:06:29.145Z,2.80
2019-03-16T02:08:56.812Z,2.73
2019-03-16T02:11:24.459Z,2.90
2019-03-16T02:13:52.157Z,2.47
2019-03-16T02:16:19.810Z,2.40
2019-03-16T02:18:47.986Z,2.40
2019-03-16T02:21:15.612Z,2.60
2019-03-16T02:23:43.254Z,2.17
2019-03-16T02:26:10.949Z,2.40
2019-03-16T02:28:38.602Z,2.20
2019-03-16T02:31:06.268Z,2.60
2019-03-16T02:33:35.068Z,2.67
2019-03-16T02:36:02.860Z,2.40
2019-03-16T02:38:30.629Z,2.53
2019-03-16T02:40:58.315Z,2.80
2019-03-16T02:43:25.964Z,2.27
2019-03-16T02:45:54.793Z,2.70
2019-03-16T02:48:22.442Z,2.53
2019-03-16T02:50:50.179Z,2.30
2019-03-16T02:53:17.898Z,2.60
2019-03-16T02:55:45.822Z,2.40
2019-03-16T02:58:13.481Z,2.73
2019-03-16T03:00:41.215Z,2.97
2019-03-16T03:03:08.881Z,2.67
2019-03-16T03:05:36.641Z,3.20
2019-03-16T03:08:04.339Z,3.00
2019-03-16T03:10:32.005Z,3.10
2019-03-16T03:12:59.662Z,3.30
2019-03-16T03:15:27.393Z,2.77
2019-03-16T03:17:55.049Z,3.67
2019-03-16T03:20:24.498Z,3.67
2019-03-16T03:22:52.180Z,4.00
2019-03-16T03:25:19.890Z,3.67
2019-03-16T03:27:47.556Z,3.80
2019-03-16T03:30:19.130Z,4.00
2019-03-16T03:32:46.793Z,4.53
2019-03-16T03:35:15.648Z,4.03
2019-03-16T03:37:43.285Z,3.70
2019-03-16T03:40:11.406Z,3.90
2019-03-16T03:42:39.244Z,3.77
2019-03-16T03:45:07.437Z,3.97
2019-03-16T03:47:35.204Z,3.70
2019-03-16T03:50:03.584Z,4.20
2019-03-16T03:52:31.329Z,3.90
2019-03-16T03:54:59.973Z,3.67
2019-03-16T03:57:27.618Z,3.43
2019-03-16T03:59:55.290Z,3.43
2019-03-16T04:02:22.964Z,3.03
2019-03-16T04:04:50.617Z,3.23
2019-03-16T04:07:20.395Z,3.63
2019-03-16T04:09:47.865Z,3.87
2019-03-16T04:12:15.496Z,2.97
2019-03-16T04:14:43.159Z,3.60
2019-03-16T04:17:11.605Z,3.47
2019-03-16T04:19:39.237Z,3.43
2019-03-16T04:22:06.893Z,3.77
2019-03-16T04:24:34.548Z,3.77
2019-03-16T04:27:15.045Z,2.87
2019-03-16T04:29:32.482Z,3.77
2019-03-16T04:32:00.197Z,3.00
2019-03-16T04:34:29.665Z,3.30
2019-03-16T04:36:57.437Z,3.27
2019-03-16T04:39:25.230Z,3.43
2019-03-16T04:41:52.949Z,3.90
2019-03-16T04:44:20.590Z,2.97
2019-03-16T04:46:49.581Z,3.40
2019-03-16T04:49:17.241Z,3.23
2019-03-16T04:51:44.904Z,2.87
2019-03-16T04:54:12.611Z,3.17
2019-03-16T04:56:40.365Z,3.00
2019-03-16T04:59:07.993Z,2.80
2019-03-16T05:01:35.680Z,2.77
2019-03-16T05:04:04.420Z,2.57
2019-03-16T05:06:32.065Z,2.60
2019-03-16T05:08:59.709Z,2.60
2019-03-16T05:11:27.345Z,2.67
2019-03-16T05:13:54.885Z,2.70
2019-03-16T05:16:22.510Z,2.77
2019-03-16T05:18:50.253Z,2.90
2019-03-16T05:21:17.861Z,3.50
2019-03-16T05:23:45.526Z,3.60
2019-03-16T05:26:13.225Z,3.27
2019-03-16T05:28:41.013Z,3.20
2019-03-16T05:31:08.642Z,3.43
2019-03-16T05:33:36.288Z,3.37
2019-03-16T05:36:03.953Z,3.27
2019-03-16T05:38:31.665Z,3.90
2019-03-16T05:40:59.337Z,3.40
2019-03-16T05:43:28.117Z,3.63
2019-03-16T05:45:55.773Z,3.43
2019-03-16T05:48:23.442Z,3.60
2019-03-16T05:50:51.124Z,3.97
2019-03-16T05:53:18.787Z,3.50
2019-03-16T05:55:46.446Z,3.43
2019-03-16T05:58:14.053Z,3.40
2019-03-16T06:00:41.810Z,3.50
2019-03-16T06:03:09.417Z,3.77
2019-03-16T06:05:37.053Z,3.70
2019-03-16T06:08:04.717Z,4.10
2019-03-16T06:10:33.465Z,3.27
2019-03-16T06:13:01.141Z,3.40
2019-03-16T06:15:28.984Z,3.30
2019-03-16T06:17:56.725Z,3.23
2019-03-16T06:20:24.423Z,4.03
2019-03-16T06:22:52.445Z,3.33
2019-03-16T06:25:20.096Z,2.60
2019-03-16T06:27:47.813Z,3.30
2019-03-16T06:30:15.460Z,2.93
2019-03-16T06:32:44.223Z,3.10
2019-03-16T06:35:23.993Z,3.43
2019-03-16T06:37:41.426Z,3.03
2019-03-16T06:40:09.208Z,3.10
2019-03-16T06:42:36.852Z,3.23
2019-03-16T06:45:05.040Z,3.37
2019-03-16T06:47:32.729Z,3.63
2019-03-16T06:50:00.400Z,3.17
2019-03-16T06:52:28.531Z,3.20
2019-03-16T06:54:56.162Z,3.10
2019-03-16T06:57:23.813Z,2.43
2019-03-16T06:59:51.524Z,3.00
2019-03-16T07:02:19.161Z,3.30
2019-03-16T07:04:46.821Z,2.80
2019-03-16T07:07:14.514Z,2.93
2019-03-16T07:09:42.173Z,3.00
2019-03-16T07:12:09.825Z,3.07
2019-03-16T07:14:37.477Z,3.30
2019-03-16T07:17:05.118Z,3.13
2019-03-16T07:19:34.049Z,3.77
2019-03-16T07:22:01.913Z,3.27
2019-03-16T07:24:29.621Z,3.40
2019-03-16T07:26:57.282Z,3.00
2019-03-16T07:29:24.946Z,3.23
2019-03-16T07:31:52.632Z,3.03
2019-03-16T07:34:20.254Z,2.80
2019-03-16T07:36:48.047Z,3.17
2019-03-16T07:39:15.777Z,3.70
2019-03-16T07:41:43.406Z,3.00
2019-03-16T07:44:11.133Z,2.70
2019-03-16T07:46:38.773Z,2.90
2019-03-16T07:49:06.405Z,3.20
2019-03-16T07:51:34.086Z,2.80
2019-03-16T07:54:01.733Z,2.70
2019-03-16T07:56:29.418Z,2.97
2019-03-16T07:58:57.100Z,3.20
2019-03-16T08:01:24.752Z,2.70
2019-03-16T08:03:52.401Z,3.10
2019-03-16T08:06:20.023Z,2.40
2019-03-16T08:08:47.697Z,2.60
2019-03-16T08:11:15.348Z,2.40
2019-03-16T08:13:43.070Z,2.33
2019-03-16T08:16:10.705Z,2.50
2019-03-16T08:18:38.349Z,2.47
2019-03-16T08:21:06.061Z,2.30
2019-03-16T08:23:33.784Z,2.40
2019-03-16T08:26:01.522Z,2.40
2019-03-16T08:28:29.358Z,2.40
2019-03-16T08:30:57.044Z,3.07
2019-03-16T08:33:24.744Z,2.33
2019-03-16T08:35:52.430Z,2.63
2019-03-16T08:38:20.113Z,2.37
2019-03-16T08:40:47.893Z,2.23
2019-03-16T08:43:15.614Z,2.23
2019-03-16T08:45:43.284Z,1.90
2019-03-16T08:48:22.329Z,2.13
2019-03-16T08:50:40.525Z,2.33
2019-03-16T08:53:08.162Z,1.97
2019-03-16T08:55:36.082Z,2.07
2019-03-16T08:58:06.275Z,1.90
2019-03-16T09:00:33.381Z,1.93
2019-03-16T09:03:01.281Z,1.77
2019-03-16T09:05:28.950Z,1.57
2019-03-16T09:07:56.603Z,1.70
2019-03-16T09:10:24.265Z,1.57
2019-03-16T09:12:55.163Z,2.00
2019-03-16T09:15:21.561Z,1.53
2019-03-16T09:17:49.328Z,1.77
2019-03-16T09:20:17.077Z,1.60
2019-03-16T09:22:44.757Z,1.67
2019-03-16T09:25:12.393Z,1.77
2019-03-16T09:27:40.267Z,1.53
2019-03-16T09:30:09.511Z,1.40
2019-03-16T09:32:38.293Z,1.50
2019-03-16T09:35:05.927Z,1.30
2019-03-16T09:37:33.679Z,1.40
2019-03-16T09:40:01.497Z,1.10
2019-03-16T09:42:29.142Z,1.30
2019-03-16T09:44:56.770Z,1.00
2019-03-16T09:47:24.457Z,1.40
2019-03-16T09:49:52.160Z,1.10
2019-03-16T09:52:19.797Z,1.17
2019-03-16T09:54:47.473Z,1.20
2019-03-16T09:57:15.171Z,1.03
2019-03-16T09:59:42.863Z,1.10
2019-03-16T10:02:10.569Z,1.10
2019-03-16T10:04:38.276Z,1.17
2019-03-16T10:07:05.971Z,1.27
2019-03-16T10:09:33.654Z,0.90
2019-03-16T10:12:01.335Z,1.00
2019-03-16T10:14:28.989Z,0.90
2019-03-16T10:16:56.681Z,0.80
2019-03-16T10:19:24.342Z,0.60
2019-03-16T10:21:52.113Z,1.00
2019-03-16T10:24:19.794Z,2.47
2019-03-16T10:26:47.807Z,0.70
2019-03-16T10:29:15.566Z,0.80
2019-03-16T10:31:43.344Z,0.90
2019-03-16T10:34:12.117Z,0.80
2019-03-16T10:36:39.805Z,0.50
2019-03-16T10:39:07.532Z,0.90
2019-03-16T10:41:35.217Z,0.80
2019-03-16T10:44:04.048Z,0.80
2019-03-16T10:46:31.770Z,1.00
2019-03-16T10:48:59.425Z,0.77
2019-03-16T10:51:27.779Z,0.60
2019-03-16T10:53:55.680Z,0.77
2019-03-16T10:56:23.347Z,0.70
2019-03-16T10:58:56.414Z,0.93
2019-03-16T11:01:20.581Z,0.97
2019-03-16T11:03:48.265Z,0.80
2019-03-16T11:06:16.017Z,0.60
2019-03-16T11:08:43.729Z,0.47
2019-03-16T11:11:11.363Z,0.90
2019-03-16T11:13:39.035Z,0.67
2019-03-16T11:16:06.681Z,0.60
2019-03-16T11:18:34.480Z,0.60
2019-03-16T11:21:02.243Z,0.60
2019-03-16T11:23:29.905Z,0.50
2019-03-16T11:25:57.610Z,0.50
2019-03-16T11:28:25.323Z,0.50
2019-03-16T11:30:53.307Z,0.57
2019-03-16T11:33:21.023Z,0.80
2019-03-16T11:35:48.817Z,0.40
2019-03-16T11:38:16.550Z,0.67
2019-03-16T11:40:44.360Z,0.40
2019-03-16T11:43:12.113Z,0.50
2019-03-16T11:45:39.985Z,0.70
2019-03-16T11:48:07.682Z,0.43
2019-03-16T11:50:35.365Z,0.50
2019-03-16T11:53:03.123Z,0.50
2019-03-16T11:55:30.821Z,0.40
2019-03-16T11:57:58.593Z,0.40
2019-03-16T12:00:26.385Z,0.37
2019-03-16T12:02:54.099Z,0.30
2019-03-16T12:05:21.804Z,0.30
2019-03-16T12:07:49.547Z,0.40
2019-03-16T12:10:17.268Z,0.17
2019-03-16T12:12:45.165Z,0.33
2019-03-16T12:15:15.193Z,0.20
2019-03-16T12:17:42.899Z,0.30
2019-03-16T12:20:10.618Z,0.40
2019-03-16T12:22:38.415Z,0.20
2019-03-16T12:25:06.166Z,0.30
2019-03-16T12:27:33.821Z,0.30
2019-03-16T12:30:01.481Z,0.37
2019-03-16T12:32:30.602Z,0.50
2019-03-16T12:34:58.342Z,0.40
2019-03-16T12:37:26.058Z,0.30
2019-03-16T12:39:53.863Z,0.33
2019-03-16T12:42:21.675Z,0.50
2019-03-16T12:44:49.433Z,0.40
2019-03-16T12:47:17.121Z,0.60
2019-03-16T12:49:44.844Z,0.50
2019-03-16T12:52:12.633Z,0.43
2019-03-16T12:54:40.398Z,0.60
2019-03-16T12:57:08.247Z,0.60
2019-03-16T12:59:46.404Z,0.60
2019-03-16T13:02:05.626Z,0.40
2019-03-16T13:04:33.381Z,0.33
2019-03-16T13:07:01.234Z,0.47
2019-03-16T13:09:29.278Z,0.40
2019-03-16T13:11:56.989Z,0.60
2019-03-16T13:14:24.688Z,0.30
2019-03-16T13:16:52.458Z,0.50
2019-03-16T13:19:20.270Z,0.40
2019-03-16T13:21:47.965Z,0.40
2019-03-16T13:24:15.638Z,0.40
2019-03-16T13:26:43.299Z,0.40
2019-03-16T13:29:11.187Z,0.60
2019-03-16T13:31:38.868Z,0.37
2019-03-16T13:34:06.633Z,0.30
2019-03-16T13:36:34.322Z,0.40
2019-03-16T13:39:03.669Z,0.40
2019-03-16T13:41:31.531Z,0.43
2019-03-16T13:43:59.175Z,0.47
2019-03-16T13:46:26.837Z,0.40
2019-03-16T13:48:54.521Z,0.53
2019-03-16T13:51:22.223Z,0.50
2019-03-16T13:53:50.942Z,0.73
2019-03-16T13:56:18.633Z,0.70
2019-03-16T13:58:46.656Z,0.57
2019-03-16T14:01:15.497Z,0.40
2019-03-16T14:03:43.278Z,0.60
2019-03-16T14:06:11.321Z,0.57
2019-03-16T14:08:39.040Z,0.83
2019-03-16T14:11:06.737Z,1.00
2019-03-16T14:13:34.462Z,1.07
2019-03-16T14:16:02.301Z,0.40
2019-03-16T14:18:30.038Z,0.40
2019-03-16T14:20:57.697Z,0.77
2019-03-16T14:23:25.453Z,1.00
2019-03-16T14:25:53.200Z,0.40
2019-03-16T14:28:21.108Z,0.40
2019-03-16T14:30:48.816Z,0.40
2019-03-16T14:33:16.749Z,0.43
2019-03-16T14:35:44.485Z,0.50
2019-03-16T14:38:12.309Z,0.80
2019-03-16T14:40:40.269Z,0.50
2019-03-16T14:43:11.227Z,0.67
2019-03-16T14:45:37.800Z,0.50
2019-03-16T14:48:05.779Z,0.50
2019-03-16T14:50:33.653Z,0.50
2019-03-16T14:53:01.385Z,0.50
2019-03-16T14:55:29.256Z,0.87
2019-03-16T14:57:56.922Z,0.80
2019-03-16T15:00:37.300Z,0.50
2019-03-16T15:02:54.434Z,0.57
2019-03-16T15:05:22.112Z,0.47
2019-03-16T15:07:50.445Z,0.60
2019-03-16T15:10:18.334Z,0.40
2019-03-16T15:12:46.107Z,0.50
2019-03-16T15:15:13.970Z,0.60
2019-03-16T15:17:41.719Z,0.40
2019-03-16T15:20:09.518Z,0.70
2019-03-16T15:22:38.368Z,0.60
2019-03-16T15:25:06.098Z,0.70
2019-03-16T15:27:33.860Z,0.70
2019-03-16T15:30:01.574Z,0.50
2019-03-16T15:32:29.456Z,0.70
2019-03-16T15:34:57.129Z,0.60
2019-03-16T15:37:24.934Z,0.70
2019-03-16T15:39:52.628Z,0.53
2019-03-16T15:42:22.694Z,0.60
2019-03-16T15:44:49.876Z,0.50
2019-03-16T15:47:17.543Z,0.70
2019-03-16T15:49:45.236Z,0.60
2019-03-16T15:52:13.050Z,0.60
2019-03-16T15:54:41.911Z,0.63
2019-03-16T15:57:09.561Z,0.70
2019-03-16T15:59:37.269Z,0.60
2019-03-16T16:02:04.960Z,0.60
2019-03-16T16:04:32.676Z,0.73
2019-03-16T16:07:00.386Z,0.60
2019-03-16T16:09:28.058Z,0.60
2019-03-16T16:11:55.805Z,0.50
2019-03-16T16:14:23.515Z,0.60
2019-03-16T16:16:51.205Z,0.60
2019-03-16T16:19:21.677Z,0.67
2019-03-16T16:21:48.590Z,0.67
2019-03-16T16:24:16.325Z,0.60
2019-03-16T16:26:44.053Z,0.60
2019-03-16T16:29:11.861Z,0.60
2019-03-16T16:31:39.533Z,0.90
2019-03-16T16:34:07.256Z,0.77
2019-03-16T16:36:35.121Z,0.60
2019-03-16T16:39:05.887Z,0.90
2019-03-16T16:41:33.602Z,0.70
2019-03-16T16:44:01.377Z,1.10
2019-03-16T16:46:29.060Z,1.00
2019-03-16T16:48:59.098Z,0.90
2019-03-16T16:51:26.397Z,0.90
2019-03-16T16:53:54.063Z,0.80
2019-03-16T16:56:21.874Z,0.90
2019-03-16T16:58:49.622Z,0.63
2019-03-16T17:01:28.708Z,0.93
2019-03-16T17:03:47.121Z,0.93
2019-03-16T17:06:15.917Z,0.80
2019-03-16T17:08:43.635Z,0.77
2019-03-16T17:11:11.422Z,0.80
2019-03-16T17:13:39.249Z,1.10
2019-03-16T17:16:06.956Z,0.93
2019-03-16T17:18:34.618Z,0.80
2019-03-16T17:21:02.377Z,0.80
2019-03-16T17:23:30.025Z,0.90
2019-03-16T17:25:57.817Z,0.90
2019-03-16T17:28:26.093Z,0.83
2019-03-16T17:30:57.501Z,0.70
2019-03-16T17:33:25.169Z,1.00
2019-03-16T17:35:52.856Z,0.83
2019-03-16T17:38:20.525Z,0.80
2019-03-16T17:40:48.898Z,0.97
2019-03-16T17:43:16.678Z,0.90
2019-03-16T17:45:44.397Z,1.73
2019-03-16T17:48:12.646Z,1.80
2019-03-16T17:50:40.346Z,0.90
2019-03-16T17:53:08.170Z,0.80
2019-03-16T17:55:36.022Z,2.83
2019-03-16T17:58:03.878Z,1.80
2019-03-16T18:00:31.585Z,1.80
2019-03-16T18:02:59.443Z,1.80
2019-03-16T18:05:27.206Z,1.70
2019-03-16T18:07:54.908Z,1.50
2019-03-16T18:10:22.607Z,1.20
2019-03-16T18:12:50.483Z,1.40
2019-03-16T18:15:18.224Z,1.40
2019-03-16T18:17:45.877Z,1.50
2019-03-16T18:20:13.582Z,1.83
2019-03-16T18:22:42.352Z,1.60
2019-03-16T18:25:10.380Z,1.50
2019-03-16T18:27:39.865Z,1.20
2019-03-16T18:30:10.085Z,0.90
2019-03-16T18:32:37.767Z,0.90
2019-03-16T18:35:06.871Z,0.90
2019-03-16T18:37:34.609Z,1.00
2019-03-16T18:40:03.658Z,1.20
2019-03-16T18:42:32.407Z,1.00
2019-03-16T18:45:00.123Z,1.30
2019-03-16T18:47:28.693Z,11.90
2019-03-16T18:49:56.358Z,2.50
2019-03-16T18:52:24.044Z,1.20
2019-03-16T18:54:51.708Z,6.10
2019-03-16T18:57:19.376Z,10.00
2019-03-16T18:59:47.025Z,9.10
2019-03-16T19:02:20.704Z,4.10
2019-03-16T19:04:44.303Z,6.40
2019-03-16T19:07:12.147Z,6.50
2019-03-16T19:09:39.787Z,6.53
2019-03-16T19:12:08.334Z,5.83
2019-03-16T19:14:35.989Z,3.83
2019-03-16T19:17:03.683Z,10.83
2019-03-16T19:19:31.361Z,1.70
2019-03-16T19:21:58.994Z,2.00
2019-03-16T19:24:26.743Z,4.80
2019-03-16T19:26:54.892Z,4.47
2019-03-16T19:29:22.552Z,1.53
2019-03-16T19:31:50.232Z,1.30
2019-03-16T19:34:17.877Z,1.67
2019-03-16T19:36:45.589Z,1.30
2019-03-16T19:39:13.362Z,1.13
2019-03-16T19:41:41.765Z,1.07
2019-03-16T19:44:09.621Z,1.10
2019-03-16T19:46:38.358Z,1.10
2019-03-16T19:49:07.187Z,1.00
2019-03-16T19:51:34.996Z,1.13
2019-03-16T19:54:02.662Z,1.30
2019-03-16T19:56:30.353Z,1.33
2019-03-16T19:59:00.936Z,1.30
2019-03-16T20:01:27.802Z,1.50
2019-03-16T20:03:55.500Z,1.73
2019-03-16T20:06:25.962Z,1.67
2019-03-16T20:08:52.813Z,1.90
2019-03-16T20:11:20.501Z,2.03
2019-03-16T20:13:48.349Z,3.83
2019-03-16T20:16:16.249Z,4.10
2019-03-16T20:18:44.022Z,1.80
2019-03-16T20:21:11.873Z,1.93
2019-03-16T20:23:39.686Z,1.30
2019-03-16T20:26:07.429Z,1.67
2019-03-16T20:28:35.125Z,1.90
2019-03-16T20:31:02.874Z,3.10
2019-03-16T20:33:31.677Z,2.63
2019-03-16T20:35:59.454Z,4.87
2019-03-16T20:38:27.133Z,2.40
2019-03-16T20:40:55.053Z,1.97
2019-03-16T20:43:22.793Z,2.20
2019-03-16T20:45:50.460Z,1.80
2019-03-16T20:48:18.096Z,1.40
2019-03-16T20:50:45.786Z,1.60
2019-03-16T20:53:13.501Z,1.87
2019-03-16T20:55:41.160Z,1.80
2019-03-16T20:58:09.987Z,1.40
2019-03-16T21:00:37.725Z,2.07
2019-03-16T21:03:15.580Z,1.77
2019-03-16T21:05:35.159Z,1.70
2019-03-16T21:08:02.833Z,1.60
2019-03-16T21:10:30.533Z,1.60
2019-03-16T21:12:58.223Z,1.50
2019-03-16T21:15:25.876Z,1.60
2019-03-16T21:17:55.738Z,1.60
2019-03-16T21:20:23.169Z,1.63
2019-03-16T21:22:50.842Z,1.80
2019-03-16T21:25:18.572Z,1.33
2019-03-16T21:27:46.317Z,1.50
2019-03-16T21:30:14.481Z,1.50
2019-03-16T21:32:43.089Z,1.60
2019-03-16T21:35:10.814Z,1.30
2019-03-16T21:37:38.479Z,1.37
2019-03-16T21:40:06.481Z,1.30
2019-03-16T21:42:34.350Z,1.20
2019-03-16T21:45:02.345Z,1.57
2019-03-16T21:47:30.052Z,1.60
2019-03-16T21:49:58.086Z,1.53
2019-03-16T21:52:25.804Z,1.87
2019-03-16T21:54:53.537Z,1.60
2019-03-16T21:57:21.278Z,1.60
2019-03-16T21:59:49.195Z,1.70
2019-03-16T22:02:16.834Z,1.70
2019-03-16T22:04:44.596Z,1.80
2019-03-16T22:07:12.272Z,1.67
2019-03-16T22:09:39.917Z,2.10
2019-03-16T22:12:07.588Z,1.50
2019-03-16T22:14:35.284Z,1.73
2019-03-16T22:17:02.977Z,1.83
2019-03-16T22:19:30.693Z,1.67
2019-03-16T22:21:58.337Z,1.87
2019-03-16T22:24:26.037Z,1.60
2019-03-16T22:26:53.672Z,1.60
2019-03-16T22:29:21.355Z,1.90
2019-03-16T22:31:49.063Z,1.83
2019-03-16T22:34:16.869Z,2.10
2019-03-16T22:36:44.666Z,1.97
2019-03-16T22:39:12.325Z,1.97
2019-03-16T22:41:39.968Z,2.00
2019-03-16T22:44:07.958Z,1.57
2019-03-16T22:46:35.626Z,1.70
2019-03-16T22:49:03.279Z,1.80
2019-03-16T22:51:31.205Z,1.60
2019-03-16T22:53:58.920Z,1.93
2019-03-16T22:56:26.724Z,1.80
2019-03-16T22:58:54.413Z,1.70
2019-03-16T23:01:22.200Z,1.60
2019-03-16T23:03:49.853Z,1.80
2019-03-16T23:06:17.726Z,1.87
2019-03-16T23:08:45.382Z,1.73
2019-03-16T23:11:13.030Z,1.57
2019-03-16T23:13:40.715Z,1.90
2019-03-16T23:16:08.373Z,1.90
2019-03-16T23:18:36.030Z,1.80
2019-03-16T23:21:03.790Z,1.93
2019-03-16T23:23:31.548Z,1.70
2019-03-16T23:25:59.221Z,2.13
2019-03-16T23:28:27.169Z,1.60
2019-03-16T23:30:55.058Z,1.70
2019-03-16T23:33:22.810Z,1.60
2019-03-16T23:35:50.767Z,1.90
2019-03-16T23:38:18.465Z,1.60
2019-03-16T23:40:46.341Z,1.70
2019-03-16T23:43:14.093Z,1.70
2019-03-16T23:45:41.776Z,2.07
2019-03-16T23:48:11.752Z,1.80
2019-03-16T23:50:39.492Z,1.93
2019-03-16T23:53:07.145Z,1.90
2019-03-16T23:55:34.771Z,1.70
2019-03-16T23:58:02.537Z,1.90
